sensor_id;sensor_type;location;lat;lon;timestamp;P1;durP1;ratioP1;P2;durP2;ratioP2
14736;SDS011;7459;53.590;10.062;2023-04-03T00:01:14;5.63;;;1.73;;
14736;SDS011;7459;53.590;10.062;2023-04-03T00:03:40;4.57;;;1.10;;
14736;SDS011;7459;53.590;10.062;2023-04-03T00:06:06;6.82;;;2.22;;
14736;SDS011;7459;53.590;10.062;2023-04-03T00:08:35;4.57;;;1.17;;
14736;SDS011;7459;53.590;10.062;2023-04-03T00:11:01;7.05;;;1.77;;
14736;SDS011;7459;53.590;10.062;2023-04-03T00:13:27;6.18;;;1.25;;
14736;SDS011;7459;53.590;10.062;2023-04-03T00:15:53;8.25;;;1.67;;
14736;SDS011;7459;53.590;10.062;2023-04-03T00:18:19;9.03;;;1.60;;
14736;SDS011;7459;53.590;10.062;2023-04-03T00:20:45;4.30;;;1.33;;
14736;SDS011;7459;53.590;10.062;2023-04-03T00:23:11;6.55;;;1.48;;
14736;SDS011;7459;53.590;10.062;2023-04-03T00:25:37;8.10;;;1.40;;
14736;SDS011;7459;53.590;10.062;2023-04-03T00:28:03;6.47;;;1.40;;
14736;SDS011;7459;53.590;10.062;2023-04-03T00:30:29;4.10;;;1.40;;
14736;SDS011;7459;53.590;10.062;2023-04-03T00:32:55;7.38;;;1.40;;
14736;SDS011;7459;53.590;10.062;2023-04-03T00:35:22;4.55;;;1.33;;
14736;SDS011;7459;53.590;10.062;2023-04-03T00:37:50;6.95;;;1.38;;
14736;SDS011;7459;53.590;10.062;2023-04-03T00:40:17;5.07;;;1.48;;
14736;SDS011;7459;53.590;10.062;2023-04-03T00:42:44;4.80;;;1.65;;
14736;SDS011;7459;53.590;10.062;2023-04-03T00:45:22;4.70;;;1.52;;
14736;SDS011;7459;53.590;10.062;2023-04-03T00:48:05;3.70;;;1.55;;
14736;SDS011;7459;53.590;10.062;2023-04-03T00:50:34;5.60;;;1.95;;
14736;SDS011;7459;53.590;10.062;2023-04-03T00:53:03;5.95;;;1.20;;
14736;SDS011;7459;53.590;10.062;2023-04-03T00:55:31;5.32;;;1.40;;
14736;SDS011;7459;53.590;10.062;2023-04-03T00:57:59;6.05;;;1.67;;
14736;SDS011;7459;53.590;10.062;2023-04-03T01:00:26;5.20;;;1.20;;
14736;SDS011;7459;53.590;10.062;2023-04-03T01:02:52;5.55;;;1.25;;
14736;SDS011;7459;53.590;10.062;2023-04-03T01:05:18;6.05;;;1.38;;
14736;SDS011;7459;53.590;10.062;2023-04-03T01:07:46;7.53;;;1.73;;
14736;SDS011;7459;53.590;10.062;2023-04-03T01:10:15;6.20;;;1.50;;
14736;SDS011;7459;53.590;10.062;2023-04-03T01:12:43;8.10;;;1.60;;
14736;SDS011;7459;53.590;10.062;2023-04-03T01:15:15;6.47;;;2.13;;
14736;SDS011;7459;53.590;10.062;2023-04-03T01:17:55;7.50;;;1.65;;
14736;SDS011;7459;53.590;10.062;2023-04-03T01:25:38;5.28;;;1.30;;
14736;SDS011;7459;53.590;10.062;2023-04-03T01:28:17;5.07;;;1.38;;
14736;SDS011;7459;53.590;10.062;2023-04-03T01:33:49;3.25;;;1.02;;
14736;SDS011;7459;53.590;10.062;2023-04-03T01:36:19;6.07;;;1.73;;
14736;SDS011;7459;53.590;10.062;2023-04-03T01:38:49;7.18;;;1.50;;
14736;SDS011;7459;53.590;10.062;2023-04-03T01:41:16;7.80;;;1.38;;
14736;SDS011;7459;53.590;10.062;2023-04-03T01:43:43;6.05;;;1.42;;
14736;SDS011;7459;53.590;10.062;2023-04-03T01:46:09;7.53;;;1.70;;
14736;SDS011;7459;53.590;10.062;2023-04-03T01:48:35;6.20;;;1.10;;
14736;SDS011;7459;53.590;10.062;2023-04-03T01:51:01;4.85;;;1.50;;
14736;SDS011;7459;53.590;10.062;2023-04-03T01:53:26;5.20;;;1.50;;
14736;SDS011;7459;53.590;10.062;2023-04-03T01:55:52;8.82;;;2.33;;
14736;SDS011;7459;53.590;10.062;2023-04-03T01:58:18;7.07;;;1.40;;
14736;SDS011;7459;53.590;10.062;2023-04-03T02:00:43;5.25;;;1.58;;
14736;SDS011;7459;53.590;10.062;2023-04-03T02:03:09;8.67;;;1.60;;
14736;SDS011;7459;53.590;10.062;2023-04-03T02:05:35;5.60;;;1.63;;
14736;SDS011;7459;53.590;10.062;2023-04-03T02:08:00;7.37;;;1.87;;
14736;SDS011;7459;53.590;10.062;2023-04-03T02:10:26;5.57;;;1.67;;
14736;SDS011;7459;53.590;10.062;2023-04-03T02:12:52;6.07;;;1.67;;
14736;SDS011;7459;53.590;10.062;2023-04-03T02:15:18;3.22;;;1.45;;
14736;SDS011;7459;53.590;10.062;2023-04-03T02:17:44;6.43;;;1.80;;
14736;SDS011;7459;53.590;10.062;2023-04-03T02:20:09;4.25;;;1.60;;
14736;SDS011;7459;53.590;10.062;2023-04-03T02:22:35;6.30;;;1.70;;
14736;SDS011;7459;53.590;10.062;2023-04-03T02:25:01;7.97;;;1.57;;
14736;SDS011;7459;53.590;10.062;2023-04-03T02:27:27;8.15;;;1.92;;
14736;SDS011;7459;53.590;10.062;2023-04-03T02:29:53;6.07;;;1.37;;
14736;SDS011;7459;53.590;10.062;2023-04-03T02:32:19;4.13;;;1.30;;
14736;SDS011;7459;53.590;10.062;2023-04-03T02:34:44;5.78;;;1.50;;
14736;SDS011;7459;53.590;10.062;2023-04-03T02:37:10;5.77;;;1.10;;
14736;SDS011;7459;53.590;10.062;2023-04-03T02:39:36;9.02;;;1.75;;
14736;SDS011;7459;53.590;10.062;2023-04-03T02:42:02;5.17;;;1.20;;
14736;SDS011;7459;53.590;10.062;2023-04-03T02:44:28;4.68;;;1.45;;
14736;SDS011;7459;53.590;10.062;2023-04-03T02:46:53;6.10;;;1.50;;
14736;SDS011;7459;53.590;10.062;2023-04-03T02:49:19;5.03;;;1.77;;
14736;SDS011;7459;53.590;10.062;2023-04-03T02:51:45;6.32;;;1.15;;
14736;SDS011;7459;53.590;10.062;2023-04-03T02:54:11;5.43;;;1.58;;
14736;SDS011;7459;53.590;10.062;2023-04-03T02:56:36;7.00;;;1.10;;
14736;SDS011;7459;53.590;10.062;2023-04-03T02:59:02;5.18;;;1.58;;
14736;SDS011;7459;53.590;10.062;2023-04-03T03:01:28;5.30;;;1.73;;
14736;SDS011;7459;53.590;10.062;2023-04-03T03:03:56;6.28;;;1.88;;
14736;SDS011;7459;53.590;10.062;2023-04-03T03:06:23;5.45;;;1.00;;
14736;SDS011;7459;53.590;10.062;2023-04-03T03:08:48;3.60;;;0.90;;
14736;SDS011;7459;53.590;10.062;2023-04-03T03:11:14;4.20;;;1.10;;
14736;SDS011;7459;53.590;10.062;2023-04-03T03:13:40;3.80;;;1.55;;
14736;SDS011;7459;53.590;10.062;2023-04-03T03:16:06;8.00;;;1.50;;
14736;SDS011;7459;53.590;10.062;2023-04-03T03:18:32;4.57;;;1.35;;
14736;SDS011;7459;53.590;10.062;2023-04-03T03:20:59;10.00;;;1.55;;
14736;SDS011;7459;53.590;10.062;2023-04-03T03:23:27;7.85;;;1.10;;
14736;SDS011;7459;53.590;10.062;2023-04-03T03:26:12;4.70;;;1.48;;
14736;SDS011;7459;53.590;10.062;2023-04-03T03:28:38;6.30;;;1.10;;
14736;SDS011;7459;53.590;10.062;2023-04-03T03:31:05;3.85;;;1.15;;
14736;SDS011;7459;53.590;10.062;2023-04-03T03:33:32;6.85;;;1.27;;
14736;SDS011;7459;53.590;10.062;2023-04-03T03:35:58;5.68;;;1.45;;
14736;SDS011;7459;53.590;10.062;2023-04-03T03:38:25;5.50;;;1.52;;
14736;SDS011;7459;53.590;10.062;2023-04-03T03:40:51;6.13;;;1.23;;
14736;SDS011;7459;53.590;10.062;2023-04-03T03:43:17;11.80;;;1.85;;
14736;SDS011;7459;53.590;10.062;2023-04-03T03:45:44;5.53;;;1.30;;
14736;SDS011;7459;53.590;10.062;2023-04-03T03:48:10;8.45;;;1.63;;
14736;SDS011;7459;53.590;10.062;2023-04-03T03:50:36;8.27;;;1.83;;
14736;SDS011;7459;53.590;10.062;2023-04-03T03:53:02;5.65;;;2.10;;
14736;SDS011;7459;53.590;10.062;2023-04-03T03:55:28;6.78;;;1.60;;
14736;SDS011;7459;53.590;10.062;2023-04-03T03:57:53;4.83;;;1.30;;
14736;SDS011;7459;53.590;10.062;2023-04-03T04:00:19;8.05;;;2.22;;
14736;SDS011;7459;53.590;10.062;2023-04-03T04:02:46;9.03;;;2.10;;
14736;SDS011;7459;53.590;10.062;2023-04-03T04:05:11;6.78;;;1.80;;
14736;SDS011;7459;53.590;10.062;2023-04-03T04:07:37;8.07;;;2.22;;
14736;SDS011;7459;53.590;10.062;2023-04-03T04:10:03;5.33;;;1.90;;
14736;SDS011;7459;53.590;10.062;2023-04-03T04:12:29;5.15;;;2.22;;
14736;SDS011;7459;53.590;10.062;2023-04-03T04:14:55;5.97;;;1.90;;
14736;SDS011;7459;53.590;10.062;2023-04-03T04:17:21;5.22;;;1.75;;
14736;SDS011;7459;53.590;10.062;2023-04-03T04:19:46;7.80;;;2.33;;
14736;SDS011;7459;53.590;10.062;2023-04-03T04:22:12;6.57;;;1.80;;
14736;SDS011;7459;53.590;10.062;2023-04-03T04:24:38;4.70;;;1.80;;
14736;SDS011;7459;53.590;10.062;2023-04-03T04:27:03;7.90;;;2.00;;
14736;SDS011;7459;53.590;10.062;2023-04-03T04:29:29;7.57;;;3.67;;
14736;SDS011;7459;53.590;10.062;2023-04-03T04:32:00;3.58;;;1.50;;
14736;SDS011;7459;53.590;10.062;2023-04-03T04:34:25;7.40;;;2.30;;
14736;SDS011;7459;53.590;10.062;2023-04-03T04:36:51;7.63;;;1.90;;
14736;SDS011;7459;53.590;10.062;2023-04-03T04:39:17;4.82;;;1.83;;
14736;SDS011;7459;53.590;10.062;2023-04-03T04:41:42;5.20;;;1.97;;
14736;SDS011;7459;53.590;10.062;2023-04-03T04:44:08;6.85;;;2.00;;
14736;SDS011;7459;53.590;10.062;2023-04-03T04:46:34;6.07;;;1.80;;
14736;SDS011;7459;53.590;10.062;2023-04-03T04:49:00;7.43;;;2.40;;
14736;SDS011;7459;53.590;10.062;2023-04-03T04:51:25;6.23;;;2.03;;
14736;SDS011;7459;53.590;10.062;2023-04-03T04:53:51;4.65;;;1.83;;
14736;SDS011;7459;53.590;10.062;2023-04-03T04:56:17;5.68;;;2.03;;
14736;SDS011;7459;53.590;10.062;2023-04-03T04:58:42;6.67;;;1.90;;
14736;SDS011;7459;53.590;10.062;2023-04-03T05:01:09;7.45;;;1.98;;
14736;SDS011;7459;53.590;10.062;2023-04-03T05:03:36;6.45;;;1.90;;
14736;SDS011;7459;53.590;10.062;2023-04-03T05:06:01;5.00;;;1.73;;
14736;SDS011;7459;53.590;10.062;2023-04-03T05:08:28;6.30;;;1.80;;
14736;SDS011;7459;53.590;10.062;2023-04-03T05:10:53;6.35;;;1.80;;
14736;SDS011;7459;53.590;10.062;2023-04-03T05:13:19;5.30;;;2.13;;
14736;SDS011;7459;53.590;10.062;2023-04-03T05:15:46;7.88;;;1.95;;
14736;SDS011;7459;53.590;10.062;2023-04-03T05:18:12;7.47;;;2.00;;
14736;SDS011;7459;53.590;10.062;2023-04-03T05:20:38;6.60;;;2.03;;
14736;SDS011;7459;53.590;10.062;2023-04-03T05:23:04;5.73;;;1.77;;
14736;SDS011;7459;53.590;10.062;2023-04-03T05:25:30;7.85;;;1.77;;
14736;SDS011;7459;53.590;10.062;2023-04-03T05:27:56;7.25;;;1.63;;
14736;SDS011;7459;53.590;10.062;2023-04-03T05:30:22;10.33;;;2.10;;
14736;SDS011;7459;53.590;10.062;2023-04-03T05:32:48;8.88;;;2.35;;
14736;SDS011;7459;53.590;10.062;2023-04-03T05:35:13;8.97;;;2.20;;
14736;SDS011;7459;53.590;10.062;2023-04-03T05:37:39;6.28;;;2.03;;
14736;SDS011;7459;53.590;10.062;2023-04-03T05:40:05;10.20;;;2.28;;
14736;SDS011;7459;53.590;10.062;2023-04-03T05:42:32;7.60;;;1.70;;
14736;SDS011;7459;53.590;10.062;2023-04-03T05:44:58;7.37;;;1.60;;
14736;SDS011;7459;53.590;10.062;2023-04-03T05:47:23;4.47;;;1.45;;
14736;SDS011;7459;53.590;10.062;2023-04-03T05:49:49;4.83;;;1.50;;
14736;SDS011;7459;53.590;10.062;2023-04-03T05:52:23;6.97;;;2.38;;
14736;SDS011;7459;53.590;10.062;2023-04-03T05:54:53;3.95;;;1.55;;
14736;SDS011;7459;53.590;10.062;2023-04-03T05:57:19;5.22;;;1.92;;
14736;SDS011;7459;53.590;10.062;2023-04-03T05:59:46;7.13;;;2.55;;
14736;SDS011;7459;53.590;10.062;2023-04-03T06:02:12;8.15;;;1.88;;
14736;SDS011;7459;53.590;10.062;2023-04-03T06:04:41;6.03;;;1.60;;
14736;SDS011;7459;53.590;10.062;2023-04-03T06:07:09;7.50;;;1.90;;
14736;SDS011;7459;53.590;10.062;2023-04-03T06:09:46;12.65;;;1.80;;
14736;SDS011;7459;53.590;10.062;2023-04-03T06:12:12;4.32;;;1.52;;
14736;SDS011;7459;53.590;10.062;2023-04-03T06:14:38;9.10;;;1.63;;
14736;SDS011;7459;53.590;10.062;2023-04-03T06:17:04;5.90;;;1.77;;
14736;SDS011;7459;53.590;10.062;2023-04-03T06:19:30;4.00;;;1.40;;
14736;SDS011;7459;53.590;10.062;2023-04-03T06:21:57;7.60;;;1.60;;
14736;SDS011;7459;53.590;10.062;2023-04-03T06:24:22;5.18;;;1.40;;
14736;SDS011;7459;53.590;10.062;2023-04-03T06:26:50;7.00;;;1.35;;
14736;SDS011;7459;53.590;10.062;2023-04-03T06:29:16;5.57;;;1.20;;
14736;SDS011;7459;53.590;10.062;2023-04-03T06:31:43;4.60;;;1.23;;
14736;SDS011;7459;53.590;10.062;2023-04-03T06:34:09;4.85;;;1.38;;
14736;SDS011;7459;53.590;10.062;2023-04-03T06:36:36;4.82;;;1.45;;
14736;SDS011;7459;53.590;10.062;2023-04-03T06:39:02;7.20;;;1.70;;
14736;SDS011;7459;53.590;10.062;2023-04-03T06:41:28;7.22;;;1.63;;
14736;SDS011;7459;53.590;10.062;2023-04-03T06:43:54;3.85;;;1.20;;
14736;SDS011;7459;53.590;10.062;2023-04-03T06:46:22;3.90;;;1.25;;
14736;SDS011;7459;53.590;10.062;2023-04-03T06:48:49;5.00;;;1.20;;
14736;SDS011;7459;53.590;10.062;2023-04-03T06:51:19;5.68;;;1.40;;
14736;SDS011;7459;53.590;10.062;2023-04-03T06:53:54;6.47;;;1.07;;
14736;SDS011;7459;53.590;10.062;2023-04-03T06:56:22;3.75;;;1.10;;
14736;SDS011;7459;53.590;10.062;2023-04-03T06:58:48;7.60;;;1.17;;
14736;SDS011;7459;53.590;10.062;2023-04-03T07:01:16;4.85;;;1.20;;
14736;SDS011;7459;53.590;10.062;2023-04-03T07:03:44;7.57;;;1.45;;
14736;SDS011;7459;53.590;10.062;2023-04-03T07:06:12;7.50;;;0.90;;
14736;SDS011;7459;53.590;10.062;2023-04-03T07:08:38;3.25;;;0.75;;
14736;SDS011;7459;53.590;10.062;2023-04-03T07:11:05;3.50;;;1.20;;
14736;SDS011;7459;53.590;10.062;2023-04-03T07:13:31;3.20;;;0.73;;
14736;SDS011;7459;53.590;10.062;2023-04-03T07:15:57;4.22;;;0.90;;
14736;SDS011;7459;53.590;10.062;2023-04-03T07:18:23;4.13;;;0.90;;
14736;SDS011;7459;53.590;10.062;2023-04-03T07:20:50;2.95;;;0.60;;
14736;SDS011;7459;53.590;10.062;2023-04-03T07:23:16;4.30;;;0.77;;
14736;SDS011;7459;53.590;10.062;2023-04-03T07:25:43;4.85;;;1.58;;
14736;SDS011;7459;53.590;10.062;2023-04-03T07:28:14;6.25;;;1.40;;
14736;SDS011;7459;53.590;10.062;2023-04-03T07:30:44;5.80;;;1.30;;
14736;SDS011;7459;53.590;10.062;2023-04-03T07:33:12;8.25;;;1.10;;
14736;SDS011;7459;53.590;10.062;2023-04-03T07:35:39;3.28;;;0.82;;
14736;SDS011;7459;53.590;10.062;2023-04-03T07:38:06;4.28;;;0.68;;
14736;SDS011;7459;53.590;10.062;2023-04-03T07:40:32;5.85;;;1.20;;
14736;SDS011;7459;53.590;10.062;2023-04-03T07:42:58;6.17;;;0.63;;
14736;SDS011;7459;53.590;10.062;2023-04-03T07:45:24;2.53;;;0.60;;
14736;SDS011;7459;53.590;10.062;2023-04-03T07:47:50;4.25;;;0.80;;
14736;SDS011;7459;53.590;10.062;2023-04-03T07:50:16;3.22;;;0.73;;
14736;SDS011;7459;53.590;10.062;2023-04-03T07:52:42;5.03;;;0.80;;
14736;SDS011;7459;53.590;10.062;2023-04-03T07:55:09;4.38;;;1.02;;
14736;SDS011;7459;53.590;10.062;2023-04-03T07:57:35;2.85;;;0.70;;
14736;SDS011;7459;53.590;10.062;2023-04-03T08:00:01;4.40;;;0.80;;
14736;SDS011;7459;53.590;10.062;2023-04-03T08:02:28;5.03;;;1.30;;
14736;SDS011;7459;53.590;10.062;2023-04-03T08:04:56;3.50;;;0.80;;
14736;SDS011;7459;53.590;10.062;2023-04-03T08:07:21;2.53;;;0.77;;
14736;SDS011;7459;53.590;10.062;2023-04-03T08:09:47;2.92;;;0.60;;
14736;SDS011;7459;53.590;10.062;2023-04-03T08:12:13;4.60;;;0.65;;
14736;SDS011;7459;53.590;10.062;2023-04-03T08:14:39;3.20;;;0.50;;
14736;SDS011;7459;53.590;10.062;2023-04-03T08:17:05;3.35;;;0.70;;
14736;SDS011;7459;53.590;10.062;2023-04-03T08:19:34;3.60;;;0.60;;
14736;SDS011;7459;53.590;10.062;2023-04-03T08:22:00;4.67;;;0.80;;
14736;SDS011;7459;53.590;10.062;2023-04-03T08:24:27;3.72;;;0.75;;
14736;SDS011;7459;53.590;10.062;2023-04-03T08:26:53;5.82;;;0.98;;
14736;SDS011;7459;53.590;10.062;2023-04-03T08:29:20;2.55;;;0.60;;
14736;SDS011;7459;53.590;10.062;2023-04-03T08:31:46;2.47;;;0.77;;
14736;SDS011;7459;53.590;10.062;2023-04-03T08:34:12;5.25;;;0.90;;
14736;SDS011;7459;53.590;10.062;2023-04-03T08:36:39;21.85;;;2.92;;
14736;SDS011;7459;53.590;10.062;2023-04-03T08:39:05;10.13;;;1.92;;
14736;SDS011;7459;53.590;10.062;2023-04-03T08:41:35;4.30;;;0.60;;
14736;SDS011;7459;53.590;10.062;2023-04-03T08:47:30;3.17;;;0.80;;
14736;SDS011;7459;53.590;10.062;2023-04-03T08:50:15;3.38;;;0.80;;
14736;SDS011;7459;53.590;10.062;2023-04-03T08:52:45;3.65;;;0.70;;
14736;SDS011;7459;53.590;10.062;2023-04-03T08:58:05;3.25;;;0.82;;
14736;SDS011;7459;53.590;10.062;2023-04-03T09:00:41;6.13;;;0.43;;
14736;SDS011;7459;53.590;10.062;2023-04-03T09:03:40;3.35;;;0.77;;
14736;SDS011;7459;53.590;10.062;2023-04-03T09:06:07;2.08;;;0.50;;
14736;SDS011;7459;53.590;10.062;2023-04-03T09:08:44;2.05;;;0.60;;
14736;SDS011;7459;53.590;10.062;2023-04-03T09:20:14;5.50;;;0.70;;
14736;SDS011;7459;53.590;10.062;2023-04-03T09:22:51;4.75;;;0.68;;
14736;SDS011;7459;53.590;10.062;2023-04-03T09:25:23;4.18;;;0.60;;
14736;SDS011;7459;53.590;10.062;2023-04-03T09:28:00;2.40;;;0.43;;
14736;SDS011;7459;53.590;10.062;2023-04-03T09:30:27;4.35;;;0.60;;
14736;SDS011;7459;53.590;10.062;2023-04-03T09:32:55;2.45;;;0.40;;
14736;SDS011;7459;53.590;10.062;2023-04-03T09:37:53;3.78;;;0.73;;
14736;SDS011;7459;53.590;10.062;2023-04-03T09:40:38;3.75;;;0.80;;
14736;SDS011;7459;53.590;10.062;2023-04-03T09:45:49;3.45;;;0.52;;
14736;SDS011;7459;53.590;10.062;2023-04-03T09:48:17;2.38;;;1.05;;
14736;SDS011;7459;53.590;10.062;2023-04-03T09:50:54;2.03;;;0.43;;
14736;SDS011;7459;53.590;10.062;2023-04-03T09:53:38;2.63;;;0.50;;
14736;SDS011;7459;53.590;10.062;2023-04-03T09:58:42;2.53;;;0.70;;
14736;SDS011;7459;53.590;10.062;2023-04-03T10:01:35;3.80;;;0.60;;
14736;SDS011;7459;53.590;10.062;2023-04-03T10:06:45;2.00;;;0.55;;
14736;SDS011;7459;53.590;10.062;2023-04-03T10:09:31;2.88;;;0.68;;
14736;SDS011;7459;53.590;10.062;2023-04-03T10:14:40;3.50;;;0.40;;
14736;SDS011;7459;53.590;10.062;2023-04-03T10:25:42;2.40;;;0.40;;
14736;SDS011;7459;53.590;10.062;2023-04-03T10:28:20;1.73;;;0.43;;
14736;SDS011;7459;53.590;10.062;2023-04-03T10:34:04;3.80;;;0.40;;
14736;SDS011;7459;53.590;10.062;2023-04-03T10:36:48;1.55;;;0.30;;
14736;SDS011;7459;53.590;10.062;2023-04-03T10:40:00;1.98;;;0.47;;
14736;SDS011;7459;53.590;10.062;2023-04-03T10:43:02;5.32;;;0.50;;
14736;SDS011;7459;53.590;10.062;2023-04-03T10:48:40;2.63;;;0.40;;
14736;SDS011;7459;53.590;10.062;2023-04-03T10:51:55;4.47;;;1.10;;
14736;SDS011;7459;53.590;10.062;2023-04-03T10:54:45;2.22;;;0.45;;
14736;SDS011;7459;53.590;10.062;2023-04-03T10:57:38;2.38;;;0.63;;
14736;SDS011;7459;53.590;10.062;2023-04-03T11:00:06;2.65;;;0.57;;
14736;SDS011;7459;53.590;10.062;2023-04-03T11:02:48;4.22;;;0.85;;
14736;SDS011;7459;53.590;10.062;2023-04-03T11:11:06;2.03;;;0.40;;
14736;SDS011;7459;53.590;10.062;2023-04-03T11:13:42;4.00;;;0.65;;
14736;SDS011;7459;53.590;10.062;2023-04-03T11:16:21;4.35;;;0.60;;
14736;SDS011;7459;53.590;10.062;2023-04-03T11:19:01;2.30;;;0.70;;
14736;SDS011;7459;53.590;10.062;2023-04-03T11:21:44;6.47;;;0.95;;
14736;SDS011;7459;53.590;10.062;2023-04-03T11:24:46;4.53;;;0.77;;
14736;SDS011;7459;53.590;10.062;2023-04-03T11:27:27;4.45;;;0.82;;
14736;SDS011;7459;53.590;10.062;2023-04-03T11:30:05;3.38;;;0.68;;
14736;SDS011;7459;53.590;10.062;2023-04-03T11:32:48;5.15;;;1.02;;
14736;SDS011;7459;53.590;10.062;2023-04-03T11:35:55;2.25;;;0.60;;
14736;SDS011;7459;53.590;10.062;2023-04-03T11:38:28;3.55;;;0.60;;
14736;SDS011;7459;53.590;10.062;2023-04-03T11:41:01;5.18;;;0.75;;
14736;SDS011;7459;53.590;10.062;2023-04-03T11:43:29;2.50;;;0.68;;
14736;SDS011;7459;53.590;10.062;2023-04-03T11:45:57;2.70;;;0.70;;
14736;SDS011;7459;53.590;10.062;2023-04-03T11:51:02;4.30;;;0.50;;
14736;SDS011;7459;53.590;10.062;2023-04-03T11:53:53;3.53;;;0.50;;
14736;SDS011;7459;53.590;10.062;2023-04-03T12:01:47;4.40;;;0.50;;
14736;SDS011;7459;53.590;10.062;2023-04-03T12:04:23;2.30;;;0.45;;
14736;SDS011;7459;53.590;10.062;2023-04-03T12:06:52;2.92;;;0.45;;
14736;SDS011;7459;53.590;10.062;2023-04-03T12:10:13;2.42;;;0.40;;
14736;SDS011;7459;53.590;10.062;2023-04-03T12:12:38;4.57;;;1.13;;
14736;SDS011;7459;53.590;10.062;2023-04-03T12:15:18;5.00;;;1.02;;
14736;SDS011;7459;53.590;10.062;2023-04-03T12:26:51;5.43;;;1.00;;
14736;SDS011;7459;53.590;10.062;2023-04-03T12:35:18;3.97;;;0.60;;
14736;SDS011;7459;53.590;10.062;2023-04-03T12:38:33;1.85;;;0.57;;
14736;SDS011;7459;53.590;10.062;2023-04-03T12:41:18;1.98;;;0.45;;
14736;SDS011;7459;53.590;10.062;2023-04-03T12:44:37;3.13;;;0.60;;
14736;SDS011;7459;53.590;10.062;2023-04-03T12:47:02;4.25;;;0.50;;
14736;SDS011;7459;53.590;10.062;2023-04-03T12:49:47;5.90;;;0.70;;
14736;SDS011;7459;53.590;10.062;2023-04-03T12:52:17;2.80;;;0.60;;
14736;SDS011;7459;53.590;10.062;2023-04-03T12:54:56;3.10;;;0.40;;
14736;SDS011;7459;53.590;10.062;2023-04-03T12:57:24;4.20;;;0.50;;
14736;SDS011;7459;53.590;10.062;2023-04-03T12:59:51;4.13;;;0.75;;
14736;SDS011;7459;53.590;10.062;2023-04-03T13:02:19;2.90;;;0.57;;
14736;SDS011;7459;53.590;10.062;2023-04-03T13:04:52;3.25;;;0.60;;
14736;SDS011;7459;53.590;10.062;2023-04-03T13:07:27;4.13;;;0.30;;
14736;SDS011;7459;53.590;10.062;2023-04-03T13:10:20;3.63;;;0.40;;
14736;SDS011;7459;53.590;10.062;2023-04-03T13:12:48;3.92;;;0.75;;
14736;SDS011;7459;53.590;10.062;2023-04-03T13:15:27;3.03;;;0.70;;
14736;SDS011;7459;53.590;10.062;2023-04-03T13:18:20;2.03;;;0.38;;
14736;SDS011;7459;53.590;10.062;2023-04-03T13:20:50;3.73;;;0.50;;
14736;SDS011;7459;53.590;10.062;2023-04-03T13:23:17;2.15;;;0.40;;
14736;SDS011;7459;53.590;10.062;2023-04-03T13:25:46;4.53;;;0.40;;
14736;SDS011;7459;53.590;10.062;2023-04-03T13:28:15;1.85;;;0.38;;
14736;SDS011;7459;53.590;10.062;2023-04-03T13:34:09;3.90;;;0.87;;
14736;SDS011;7459;53.590;10.062;2023-04-03T13:36:55;2.10;;;0.50;;
14736;SDS011;7459;53.590;10.062;2023-04-03T13:39:28;3.88;;;0.50;;
14736;SDS011;7459;53.590;10.062;2023-04-03T13:41:59;1.88;;;0.40;;
14736;SDS011;7459;53.590;10.062;2023-04-03T13:44:39;3.33;;;0.60;;
14736;SDS011;7459;53.590;10.062;2023-04-03T13:49:59;5.78;;;0.50;;
14736;SDS011;7459;53.590;10.062;2023-04-03T13:52:40;3.63;;;0.40;;
14736;SDS011;7459;53.590;10.062;2023-04-03T13:57:56;3.67;;;0.30;;
14736;SDS011;7459;53.590;10.062;2023-04-03T14:00:48;3.03;;;0.63;;
14736;SDS011;7459;53.590;10.062;2023-04-03T14:05:55;1.52;;;0.52;;
14736;SDS011;7459;53.590;10.062;2023-04-03T14:08:21;1.95;;;0.30;;
14736;SDS011;7459;53.590;10.062;2023-04-03T14:10:47;4.93;;;0.60;;
14736;SDS011;7459;53.590;10.062;2023-04-03T14:13:14;5.57;;;0.50;;
14736;SDS011;7459;53.590;10.062;2023-04-03T14:15:43;1.27;;;0.20;;
14736;SDS011;7459;53.590;10.062;2023-04-03T14:18:14;4.35;;;0.57;;
14736;SDS011;7459;53.590;10.062;2023-04-03T14:20:43;7.47;;;0.93;;
14736;SDS011;7459;53.590;10.062;2023-04-03T14:23:09;3.03;;;0.63;;
14736;SDS011;7459;53.590;10.062;2023-04-03T14:25:35;2.72;;;0.55;;
14736;SDS011;7459;53.590;10.062;2023-04-03T14:28:06;2.47;;;0.63;;
14736;SDS011;7459;53.590;10.062;2023-04-03T14:30:43;2.80;;;0.40;;
14736;SDS011;7459;53.590;10.062;2023-04-03T14:33:12;4.00;;;0.45;;
14736;SDS011;7459;53.590;10.062;2023-04-03T14:35:42;2.55;;;0.70;;
14736;SDS011;7459;53.590;10.062;2023-04-03T14:38:20;5.25;;;0.50;;
14736;SDS011;7459;53.590;10.062;2023-04-03T14:40:54;3.22;;;0.50;;
14736;SDS011;7459;53.590;10.062;2023-04-03T14:43:21;1.60;;;0.30;;
14736;SDS011;7459;53.590;10.062;2023-04-03T14:45:47;1.85;;;0.63;;
14736;SDS011;7459;53.590;10.062;2023-04-03T14:48:21;3.47;;;0.60;;
14736;SDS011;7459;53.590;10.062;2023-04-03T14:50:50;2.83;;;0.63;;
14736;SDS011;7459;53.590;10.062;2023-04-03T14:53:17;2.43;;;0.50;;
14736;SDS011;7459;53.590;10.062;2023-04-03T14:55:47;3.38;;;0.50;;
14736;SDS011;7459;53.590;10.062;2023-04-03T14:58:15;4.07;;;0.77;;
14736;SDS011;7459;53.590;10.062;2023-04-03T15:00:44;3.28;;;0.40;;
14736;SDS011;7459;53.590;10.062;2023-04-03T15:03:12;3.25;;;0.43;;
14736;SDS011;7459;53.590;10.062;2023-04-03T15:05:46;5.17;;;0.60;;
14736;SDS011;7459;53.590;10.062;2023-04-03T15:08:20;3.42;;;0.68;;
14736;SDS011;7459;53.590;10.062;2023-04-03T15:10:49;3.85;;;0.70;;
14736;SDS011;7459;53.590;10.062;2023-04-03T15:13:20;4.97;;;0.47;;
14736;SDS011;7459;53.590;10.062;2023-04-03T15:15:46;2.03;;;0.60;;
14736;SDS011;7459;53.590;10.062;2023-04-03T15:18:22;4.50;;;0.80;;
14736;SDS011;7459;53.590;10.062;2023-04-03T15:20:51;3.50;;;0.70;;
14736;SDS011;7459;53.590;10.062;2023-04-03T15:23:18;5.57;;;0.80;;
14736;SDS011;7459;53.590;10.062;2023-04-03T15:25:44;4.90;;;0.65;;
14736;SDS011;7459;53.590;10.062;2023-04-03T15:28:18;4.27;;;1.07;;
14736;SDS011;7459;53.590;10.062;2023-04-03T15:30:50;4.72;;;0.82;;
14736;SDS011;7459;53.590;10.062;2023-04-03T15:33:16;3.35;;;0.88;;
14736;SDS011;7459;53.590;10.062;2023-04-03T15:35:42;2.77;;;0.83;;
14736;SDS011;7459;53.590;10.062;2023-04-03T15:38:08;2.80;;;0.50;;
14736;SDS011;7459;53.590;10.062;2023-04-03T15:40:34;4.90;;;0.75;;
14736;SDS011;7459;53.590;10.062;2023-04-03T15:43:00;3.10;;;0.65;;
14736;SDS011;7459;53.590;10.062;2023-04-03T15:45:28;4.10;;;1.00;;
14736;SDS011;7459;53.590;10.062;2023-04-03T15:47:55;3.45;;;0.60;;
14736;SDS011;7459;53.590;10.062;2023-04-03T15:50:21;5.47;;;0.95;;
14736;SDS011;7459;53.590;10.062;2023-04-03T15:52:48;2.08;;;0.35;;
14736;SDS011;7459;53.590;10.062;2023-04-03T15:55:19;2.90;;;0.50;;
14736;SDS011;7459;53.590;10.062;2023-04-03T15:57:54;2.42;;;0.40;;
14736;SDS011;7459;53.590;10.062;2023-04-03T16:00:20;3.83;;;0.50;;
14736;SDS011;7459;53.590;10.062;2023-04-03T16:02:48;4.00;;;0.88;;
14736;SDS011;7459;53.590;10.062;2023-04-03T16:05:19;3.50;;;0.57;;
14736;SDS011;7459;53.590;10.062;2023-04-03T16:07:45;3.17;;;0.60;;
14736;SDS011;7459;53.590;10.062;2023-04-03T16:10:12;3.80;;;0.40;;
14736;SDS011;7459;53.590;10.062;2023-04-03T16:12:40;4.47;;;1.02;;
14736;SDS011;7459;53.590;10.062;2023-04-03T16:15:06;3.70;;;0.70;;
14736;SDS011;7459;53.590;10.062;2023-04-03T16:17:33;4.05;;;0.60;;
14736;SDS011;7459;53.590;10.062;2023-04-03T16:20:00;4.03;;;0.50;;
14736;SDS011;7459;53.590;10.062;2023-04-03T16:22:26;5.10;;;0.60;;
14736;SDS011;7459;53.590;10.062;2023-04-03T16:24:53;5.20;;;0.63;;
14736;SDS011;7459;53.590;10.062;2023-04-03T16:27:19;3.75;;;0.60;;
14736;SDS011;7459;53.590;10.062;2023-04-03T16:29:46;4.15;;;0.70;;
14736;SDS011;7459;53.590;10.062;2023-04-03T16:32:12;3.60;;;0.60;;
14736;SDS011;7459;53.590;10.062;2023-04-03T16:34:38;3.42;;;0.45;;
14736;SDS011;7459;53.590;10.062;2023-04-03T16:37:05;4.32;;;0.77;;